Weather observations for the past three days for
Charleston Executive Airport
Imperial (Metric)
Date Time (edt) Wind (mph) Vis. (mi.) Weather Sky Cond. Temperature (ºF) Relative Humidity Wind Chill (°F) Heat Index (°F) Pressure Precipitation (in)
Air Dwpt 6 hour altimeter (in) sea level (mb) 1 hr 3 hr 6 hr
Max. Min.
06 17:35 E 12 10.00 Fair CLR 84.2 77 79% 94 29.85 0.0
06 17:15 E 9 10.00 Fair CLR 84.2 77 79% 94 29.82 0.0
06 16:55 E 13 10.00 Fair CLR 86 77 75% 97 29.82 0.0
06 16:35 E 15 10.00 Fair CLR 87.8 75.2 66% 98 29.8 0.0
06 16:15 E 14 10.00 Fair CLR 87.8 77 70% 100 29.81 0.0
06 15:55 E 13 10.00 Fair CLR 89.6 75.2 63% 100 29.84 0.0
06 15:35 E 9 10.00 Fair CLR 89.6 75.2 63% 100 29.84 0.0
06 15:15 E 9 10.00 Fair CLR 89.6 73.4 59% 98 29.85 0.0
06 14:55 E 8 10.00 Fair CLR 89.6 73.4 59% 98 29.85 0.0
06 14:35 E 10 10.00 Fair CLR 91.4 73.4 56% 100 29.85 0.0
06 14:15 SE 12 10.00 Fair CLR 91.4 75.2 59% 103 29.86 0.0
06 13:55 E 10 10.00 Fair CLR 91.4 75.2 59% 103 29.86 0.0
06 13:35 E 8 10.00 Fair CLR 91.4 73.4 56% 100 29.86 0.0
06 13:15 Calm 10.00 Fair CLR 91.4 71.6 52% 99 29.86 0.0
06 12:55 Calm 10.00 Fair CLR 91.4 71.6 52% 99 29.87 0.0
06 12:35 Calm 10.00 Fair CLR 91.4 69.8 49% 97 29.88 0.0
06 12:15 Calm 10.00 Fair CLR 89.6 69.8 52% 95 29.88 0.0
06 11:55 N 5 10.00 Fair CLR 89.6 69.8 52% 95 29.89 0.0
06 11:30 N 6 10.00 Fair CLR 89.6 71.6 55% 96 29.89 0.0
06 11:15 N 6 10.00 Fair CLR 87.8 69.8 55% 93 29.89 0.0
06 10:55 N 3 10.00 Fair CLR 87.8 69.8 55% 93 29.9 0.0
06 10:35 Calm 10.00 Fair CLR 87.8 69.8 55% 93 29.9 0.0
06 10:15 N 3 10.00 Fair CLR 87.8 69.8 55% 93 29.89 0.0
06 09:55 Calm 10.00 Fair CLR 86 69.8 59% 91 29.89 0.0
06 09:35 Calm 10.00 Fair CLR 84.2 71.6 66% 90 29.89 0.0
06 09:15 Calm 10.00 Fair CLR 82.4 71.6 70% 87 29.88 0.0
06 08:55 Calm 10.00 Fair CLR 82.4 73.4 74% 88 29.88 0.0
06 08:35 Calm 10.00 Fair CLR 80.6 73.4 79% 85 29.88 0.0
06 08:15 Calm 10.00 Fair CLR 78.8 73.4 84% 82 29.87 0.0
06 07:55 Calm 10.00 Fair CLR 77 73.4 89% 78 29.87 0.0
06 07:35 Calm 10.00 Fair CLR 77 75.2 94% 78 29.86 0.0
06 07:15 Calm 10.00 Fair CLR 75.2 75.2 100% 73 29.86 0.0
06 06:55 Calm 10.00 Fair CLR 75.2 73.4 94% 74 29.85 0.0
06 06:35 Calm 9.00 Fair CLR 75.2 73.4 94% 74 29.84 0.0
06 06:15 Calm 10.00 Fair CLR 75.2 73.4 94% 74 29.84 0.0
06 05:55 Calm 10.00 Fair CLR 75.2 75.2 100% 73 29.84 0.0
06 05:35 Calm 10.00 A Few Clouds FEW018 75.2 73.4 94% 74 29.83 0.0
06 05:15 Calm 10.00 A Few Clouds FEW018 75.2 75.2 100% 73 29.83 0.0
06 04:55 Calm 10.00 Fair CLR 75.2 73.4 94% 74 29.83 0.0
06 04:35 Calm 10.00 Fair CLR 77 75.2 94% 78 29.82 0.0
06 04:15 Calm 10.00 Fair CLR 77 75.2 94% 78 29.83 0.0
06 03:55 Calm 10.00 Fair CLR 77 75.2 94% 78 29.83 0.0
06 03:35 Calm 10.00 A Few Clouds FEW014 77 75.2 94% 78 29.83 0.0
06 03:15 Calm 10.00 Mostly Cloudy BKN014 78.8 75.2 89% 82 29.84 0.0
06 02:55 Calm 10.00 Mostly Cloudy BKN014 78.8 75.2 89% 82 29.85 0.0
06 02:35 Calm 10.00 Mostly Cloudy BKN013 78.8 75.2 89% 82 29.85 0.0
06 02:15 Calm 10.00 Overcast OVC013 78.8 75.2 89% 82 29.85 0.0
06 01:55 Calm 10.00 Overcast OVC013 78.8 75.2 89% 82 29.85 0.0
06 01:35 Calm 10.00 Mostly Cloudy BKN011 80.6 75.2 84% 86 29.86 0.0
06 01:15 NW 3 10.00 Overcast OVC011 78.8 75.2 89% 82 29.86 0.0
06 00:55 N 5 10.00 Mostly Cloudy BKN011 80.6 78.8 94% 88 29.86 0.0
06 00:35 N 3 10.00 Fair CLR 80.6 80.6 100% 89 29.87 0.0
06 00:15 Calm 10.00 Fair CLR 82.4 80.6 94% 94 29.86 0.0
05 23:55 W 3 10.00 Fair CLR 82.4 80.6 94% 94 29.86 0.0
05 23:35 Calm 10.00 Fair CLR 82.4 80.6 94% 94 29.87 0.0
05 23:15 W 6 10.00 Fair CLR 82.4 80.6 94% 94 29.87 0.0
05 22:55 SW 5 10.00 Fair CLR 82.4 80.6 94% 94 29.86 0.0
05 22:35 Calm 10.00 Fair CLR 82.4 80.6 94% 94 29.86 0.0
05 22:15 NW 6 10.00 Fair CLR 84.2 80.6 89% 98 29.87 0.0
05 21:55 SW 9 G 15 10.00 Fair CLR 82.4 80.6 94% 94 29.81 0.0
05 21:35 S 9 10.00 Fair CLR 82.4 80.6 94% 94 29.82 0.0
05 21:15 S 7 10.00 Fair CLR 82.4 80.6 94% 94 29.84 0.0
05 20:55 Calm 10.00 Fair CLR 82.4 78.8 89% 92 29.85 0.0
05 20:35 Calm 10.00 Fair CLR 82.4 78.8 89% 92 29.86 0.0
05 20:15 Calm 10.00 Fair CLR 84.2 78.8 84% 96 29.86 0.0
05 19:55 SW 6 10.00 Fair CLR 84.2 78.8 84% 96 29.87 0.0
05 19:35 SW 3 10.00 Fair CLR 84.2 78.8 84% 96 29.86 0.0
05 19:15 SW 9 10.00 Fair CLR 84.2 78.8 84% 96 29.86 0.0
05 18:55 S 12 10.00 Fair CLR 86 78.8 79% 99 29.86 0.0
05 18:35 S 12 10.00 Fair CLR 87.8 78.8 75% 102 29.85 0.0
05 18:15 S 12 10.00 Fair CLR 87.8 78.8 75% 102 29.85 0.0
05 17:55 SW 10 10.00 Fair CLR 89.6 78.8 71% 105 29.85 0.0
05 17:35 S 13 10.00 Fair CLR 89.6 78.8 71% 105 29.85 0.0
05 17:15 S 12 10.00 Fair CLR 89.6 78.8 71% 105 29.85 0.0
05 16:55 S 13 10.00 Fair CLR 89.6 78.8 71% 105 29.84 0.0
05 16:35 S 12 G 17 10.00 Fair CLR 89.6 78.8 71% 105 29.83 0.0
05 16:15 S 12 10.00 Fair CLR 91.4 78.8 67% 108 29.83 0.0
05 15:55 S 9 10.00 Fair CLR 91.4 78.8 67% 108 29.83 0.0
05 13:55 S 12 G 18 10.00 Partly Cloudy FEW028 SCT034 SCT041 91.4 78.8 67% 108 29.88 0.0
05 13:35 S 9 10.00 Mostly Cloudy FEW025 SCT034 BKN047 91.4 78.8 67% 108 29.89 0.0
05 13:15 S 10 10.00 Mostly Cloudy SCT024 SCT032 BKN047 87.8 78.8 75% 102 29.9 0.0
05 12:35 Calm 10.00 A Few Clouds FEW030 91.4 75.2 59% 103 29.92 0.0
05 12:15 W 5 10.00 A Few Clouds FEW030 91.4 75.2 59% 103 29.93 0.0
05 11:55 SW 3 10.00 A Few Clouds FEW029 FEW035 89.6 75.2 63% 100 29.94 0.0
05 11:35 SW 5 10.00 A Few Clouds FEW028 FEW034 89.6 75.2 63% 100 29.94 0.0
05 11:15 W 3 10.00 A Few Clouds FEW023 87.8 75.2 66% 98 29.94 0.0
05 10:55 SW 6 10.00 A Few Clouds FEW023 89.6 77 67% 103 29.94 0.0
05 10:35 SW 7 10.00 Fair CLR 87.8 77 70% 100 29.94 0.0
05 10:15 Calm 10.00 Partly Cloudy SCT017 87.8 78.8 75% 102 29.95 0.0
05 09:55 NW 5 10.00 Mostly Cloudy BKN015 BKN021 87.8 78.8 75% 102 29.95 0.0
05 09:35 NW 5 10.00 Mostly Cloudy BKN014 84.2 78.8 84% 96 29.95 0.0
05 09:15 Calm 10.00 Partly Cloudy SCT013 84.2 78.8 84% 96 29.95 0.0
05 08:55 Calm 10.00 Fair CLR 84.2 78.8 84% 96 29.95 0.0
05 08:35 Calm 10.00 Fair CLR 84.2 78.8 84% 96 29.95 0.0
05 08:15 Calm 10.00 Fair CLR 82.4 78.8 89% 92 29.95 0.0
05 07:55 Calm 10.00 Fair CLR 80.6 78.8 94% 88 29.95 0.0
05 07:35 Calm 8.00 Fair CLR 78.8 78.8 100% 83 29.94 0.0
05 07:15 Calm 9.00 Fair CLR 78.8 78.8 100% 83 29.94 0.0
05 06:55 Calm 10.00 Fair CLR 77 77 100% 78 29.94 0.0
05 06:35 Calm 9.00 Fair CLR 77 77 100% 78 29.94 0.0
05 06:15 Calm 10.00 Fair CLR 77 77 100% 78 29.93 0.0
05 05:55 Calm 9.00 A Few Clouds FEW015 FEW020 78.8 78.8 100% 83 29.93 0.0
05 05:35 Calm 10.00 Mostly Cloudy BKN015 BKN021 78.8 78.8 100% 83 29.93 0.0
05 05:15 Calm 10.00 Mostly Cloudy BKN015 BKN019 BKN023 77 77 100% 78 29.93 0.0
05 04:55 Calm 10.00 A Few Clouds FEW015 77 77 100% 78 29.93 0.0
05 04:35 Calm 10.00 A Few Clouds FEW017 78.8 78.8 100% 83 29.93 0.0
05 04:15 Calm 9.00 Fair CLR 77 77 100% 78 29.92 0.0
05 03:55 Calm 10.00 Fair CLR 78.8 78.8 100% 83 29.92 0.0
05 03:35 Calm 10.00 A Few Clouds FEW017 78.8 78.8 100% 83 29.92 0.0
05 03:15 Calm 10.00 A Few Clouds FEW017 78.8 78.8 100% 83 29.92 0.0
05 02:55 Calm 10.00 Fair CLR 78.8 78.8 100% 83 29.93 0.0
05 02:35 Calm 10.00 Partly Cloudy SCT016 SCT023 78.8 78.8 100% 83 29.93 0.0
05 02:15 Calm 10.00 Mostly Cloudy BKN016 BKN021 78.8 78.8 100% 83 29.95 0.0
05 01:50 Calm 10.00 A Few Clouds FEW016 78.8 78.8 100% 83 29.96 0.0
05 01:35 SW 5 10.00 Fair CLR 78.8 78.8 100% 83 29.95 0.0
05 01:15 Calm 10.00 A Few Clouds FEW016 FEW024 80.6 78.8 94% 88 29.96 0.0
05 00:55 Calm 10.00 Partly Cloudy SCT015 SCT021 78.8 78.8 100% 83 29.97 0.0
05 00:35 Calm 9.00 Partly Cloudy SCT014 78.8 78.8 100% 83 29.97 0.0
05 00:15 Calm 10.00 A Few Clouds FEW014 78.8 77 94% 83 29.98 0.0
04 23:55 Calm 10.00 Fair CLR 78.8 77 94% 83 29.98 0.0
04 23:35 Calm 10.00 Fair CLR 80.6 78.8 94% 88 29.98 0.0
04 23:15 Calm 10.00 A Few Clouds FEW017 80.6 78.8 94% 88 29.99 0.0
04 22:55 Calm 10.00 A Few Clouds FEW017 80.6 77 89% 87 29.99 0.0
04 22:35 Calm 10.00 Fair CLR 80.6 78.8 94% 88 29.98 0.0
04 22:15 Calm 10.00 Fair CLR 80.6 77 89% 87 29.99 0.0
04 21:55 Calm 10.00 Fair CLR 82.4 77 84% 91 29.99 0.0
04 21:35 Calm 10.00 Fair CLR 82.4 78.8 89% 92 30 0.0
04 21:15 SW 3 10.00 A Few Clouds FEW019 FEW025 82.4 78.8 89% 92 29.99 0.0
04 20:55 SW 3 10.00 A Few Clouds FEW019 FEW025 82.4 78.8 89% 92 29.99 0.0
04 20:35 Calm 10.00 Fair CLR 82.4 77 84% 91 29.97 0.0
04 20:15 Calm 10.00 Fair CLR 82.4 77 84% 91 29.98 0.0
04 19:55 SW 3 10.00 A Few Clouds FEW020 FEW024 82.4 77 84% 91 29.97 0.0
04 19:35 S 7 10.00 A Few Clouds FEW018 FEW025 84.2 77 79% 94 29.97 0.0
04 19:15 S 7 10.00 A Few Clouds FEW019 84.2 77 79% 94 29.97 0.0
04 18:55 S 13 10.00 Partly Cloudy SCT020 86 77 75% 97 29.96 0.0
04 18:35 S 13 10.00 A Few Clouds FEW019 86 77 75% 97 29.96 0.0
04 18:15 S 13 10.00 A Few Clouds FEW020 86 77 75% 97 29.96 0.0
04 17:55 S 8 G 15 10.00 A Few Clouds FEW020 86 77 75% 97 29.97 0.0
04 17:35 S 9 10.00 A Few Clouds FEW021 FEW075 86 77 75% 97 29.97 0.0
04 17:15 S 10 10.00 A Few Clouds FEW020 FEW026 87.8 77 70% 100 29.97 0.0
04 16:55 S 9 10.00 A Few Clouds FEW020 87.8 77 70% 100 29.97 0.0
04 16:35 S 7 10.00 Fair CLR 87.8 77 70% 100 29.98 0.0
04 16:15 SE 6 10.00 Fair CLR 87.8 77 70% 100 29.98 0.0
04 15:55 SE 7 10.00 A Few Clouds FEW036 87.8 77 70% 100 29.99 0.0
04 15:35 S 8 10.00 Partly Cloudy FEW020 SCT025 SCT038 87.8 77 70% 100 30 0.0
04 15:15 S 9 10.00 Partly Cloudy SCT020 SCT025 SCT031 87.8 78.8 75% 102 30 0.0
04 14:55 S 8 10.00 A Few Clouds FEW022 FEW027 89.6 78.8 71% 105 30 0.0
04 14:35 S 8 G 14 10.00 Fair CLR 87.8 77 70% 100 30.01 0.0
04 14:15 S 7 10.00 Fair CLR 87.8 77 70% 100 30.01 0.0
04 13:55 S 7 10.00 A Few Clouds FEW024 89.6 77 67% 103 30.01 0.0
04 13:35 Vrbl 6 G 12 10.00 Partly Cloudy SCT024 87.8 77 70% 100 30.02 0.0
04 13:15 Vrbl 7 10.00 Partly Cloudy SCT022 87.8 77 70% 100 30.03 0.0
04 12:55 SE 7 G 13 10.00 Partly Cloudy SCT023 87.8 77 70% 100 30.03 0.0
04 12:35 S 7 10.00 Partly Cloudy SCT023 87.8 77 70% 100 30.04 0.0
04 12:15 SE 8 G 14 10.00 Partly Cloudy SCT023 87.8 77 70% 100 30.04 0.0
04 11:55 SE 8 10.00 Partly Cloudy SCT025 SCT045 87.8 77 70% 100 30.04 0.0
04 11:35 SE 8 10.00 Partly Cloudy FEW025 FEW045 SCT070 87.8 75.2 66% 98 30.05 0.0
04 11:15 SE 7 10.00 Fair CLR 87.8 75.2 66% 98 30.04 0.0
04 10:55 Calm 10.00 Fair CLR 87.8 77 70% 100 30.04 0.0
04 10:35 SE 6 10.00 A Few Clouds FEW023 87.8 77 70% 100 30.04 0.0
04 10:15 E 6 10.00 A Few Clouds FEW024 FEW030 FEW041 86 77 75% 97 30.04 0.0
04 09:55 Vrbl 7 10.00 Mostly Cloudy SCT022 BKN030 BKN040 87.8 77 70% 100 30.04 0.0
04 09:35 Calm 10.00 Mostly Cloudy BKN021 BKN027 BKN032 87.8 77 70% 100 30.03 0.0
04 09:15 Calm 10.00 A Few Clouds FEW021 FEW028 86 77 75% 97 30.03 0.0
04 08:55 Calm 10.00 A Few Clouds FEW022 84.2 77 79% 94 30.03 0.0
04 08:35 Calm 10.00 Fair CLR 84.2 78.8 84% 96 30.03 0.0
04 08:15 Calm 10.00 Fair CLR 84.2 78.8 84% 96 30.03 0.0
04 07:55 Calm 10.00 Fair CLR 82.4 78.8 89% 92 30.03 0.0
04 07:35 Calm 10.00 Fair CLR 78.8 77 94% 83 30.02 0.0
04 07:15 Calm 10.00 A Few Clouds FEW019 77 77 100% 78 30.01 0.0
04 06:55 Calm 10.00 A Few Clouds FEW018 78.8 77 94% 83 30.01 0.0
04 06:35 Calm 10.00 Partly Cloudy SCT018 SCT024 78.8 77 94% 83 30 0.0
04 06:15 Calm 10.00 Mostly Cloudy SCT019 SCT025 BKN035 78.8 77 94% 83 30 0.0
04 05:55 Calm 10.00 A Few Clouds FEW021 78.8 77 94% 83 30 0.0
04 05:35 Calm 10.00 Fair CLR 78.8 77 94% 83 30 0.0
04 05:15 Calm 10.00 A Few Clouds FEW017 FEW025 FEW031 80.6 77 89% 87 29.99 0.0
04 04:55 Calm 10.00 Mostly Cloudy SCT017 SCT024 BKN033 80.6 77 89% 87 29.99 0.0
04 04:35 Calm 10.00 Partly Cloudy FEW018 FEW023 SCT030 80.6 77 89% 87 29.99 0.0
04 04:15 Calm 10.00 A Few Clouds FEW020 FEW029 FEW034 80.6 77 89% 87 29.98 0.0
04 03:55 Calm 10.00 Partly Cloudy SCT019 SCT027 80.6 77 89% 87 29.99 0.0
04 03:35 Calm 10.00 Mostly Cloudy SCT019 SCT023 BKN028 78.8 78.8 100% 83 29.99 0.0
04 03:15 Calm 10.00 Mostly Cloudy BKN019 BKN024 80.6 77 89% 87 29.99 0.0
04 02:55 Calm 10.00 Partly Cloudy SCT019 SCT024 SCT029 80.6 77 89% 87 29.99 0.0
04 02:35 Calm 10.00 Partly Cloudy FEW019 SCT025 SCT031 80.6 77 89% 87 30 0.0
04 02:15 Calm 10.00 Partly Cloudy SCT019 SCT025 80.6 78.8 94% 88 30 0.0
04 01:50 Calm 10.00 Mostly Cloudy BKN019 80.6 78.8 94% 88 30.02 0.0
04 01:35 SE 3 10.00 Partly Cloudy SCT018 80.6 78.8 94% 88 30.02 0.0
04 01:15 SE 5 10.00 A Few Clouds FEW017 80.6 78.8 94% 88 30.02 0.0
04 00:55 SE 5 10.00 Fair CLR 82.4 78.8 89% 92 30.03 0.0
04 00:35 SE 6 10.00 Fair CLR 82.4 78.8 89% 92 30.03 0.0
04 00:15 SE 7 10.00 Fair CLR 82.4 78.8 89% 92 30.02 0.0
03 23:55 SE 8 10.00 A Few Clouds FEW020 FEW026 82.4 78.8 89% 92 30.03 0.0
03 23:35 Calm 10.00 Mostly Cloudy BKN020 BKN026 82.4 78.8 89% 92 30.03 0.0
03 23:15 Calm 10.00 Partly Cloudy SCT021 80.6 78.8 94% 88 30.04 0.0
03 22:55 Calm 10.00 Fair CLR 80.6 78.8 94% 88 30.04 0.0
03 22:35 SE 6 10.00 Partly Cloudy SCT018 SCT024 80.6 78.8 94% 88 30.04 0.0
03 22:10 E 3 10.00 Overcast BKN018 BKN025 OVC030 82.4 78.8 89% 92 30.04 0.0
03 21:55 Calm 10.00 Mostly Cloudy SCT019 BKN027 82.4 78.8 89% 92 30.04 0.0
03 21:35 E 5 10.00 A Few Clouds FEW019 80.6 78.8 94% 88 30.03 0.0
03 21:15 E 3 10.00 Fair CLR 80.6 78.8 94% 88 30.02 0.0
03 20:55 E 5 10.00 Fair CLR 82.4 78.8 89% 92 30.01 0.0
03 20:35 E 6 10.00 A Few Clouds FEW019 82.4 78.8 89% 92 30 0.0
03 20:15 E 5 10.00 A Few Clouds FEW019 82.4 78.8 89% 92 30 0.0
03 19:55 E 5 10.00 A Few Clouds FEW017 FEW022 FEW029 82.4 78.8 89% 92 30 0.0
03 19:35 E 7 10.00 Partly Cloudy SCT018 SCT023 SCT028 84.2 78.8 84% 96 30 0.0
03 19:10 E 8 10.00 A Few Clouds FEW019 84.2 78.8 84% 96 30.01 0.0
03 18:55 E 8 10.00 Partly Cloudy FEW020 FEW025 SCT032 84.2 78.8 84% 96 30 0.0
03 18:35 E 8 10.00 Mostly Cloudy SCT021 BKN028 BKN033 84.2 78.8 84% 96 30 0.0
03 18:15 E 7 10.00 Partly Cloudy FEW021 SCT030 SCT035 86 78.8 79% 99 30 0.0
03 17:55 E 9 10.00 A Few Clouds FEW020 87.8 78.8 75% 102 30.01 0.0
Date Time (edt) Wind (mph) Vis. (mi.) Weather Sky Cond. Air Dwpt Max. Min. Relative Humidity Wind Chill (°F) Heat Index (°F) altimeter (in) sea level (mb) 1 hr 3 hr 6 hr
6 hour
Temperature (ºF) Pressure Precipitation (in)